Bugt, China
Current Conditions -  °F | °C
As of 2:30 AM on Thursday 27 Nov 2014 (Local Time) from ZYTX Reporting Station
Scattered Clouds Scattered Clouds  
Wind Chill:   Ceiling: Unl
Heat Index:   Visibility: 6mi
Dew Point: -13°   Wind: 18mph
Humidity: 26%   Direction: 10°N
Pressure: 30.18"   Gusts: NA
Location:  42.33°N, 120.7°E
Report Text: ZYTX 261830Z 01008MPS 9999 SCT040 05/M13 Q1022 NOSIG
Loading
Personal Weather Stations






























Interactive Weather Map New forecast layout! Learn more

10-Day Weather Forecast

Advertisements
Track Severe Weather on mobile